Terminal Aerodrome Forecast
Issued by NWS La Crosse, WI

Current Version | Previous Version | Text Only | Print | Product List | Glossary On
Versions: 1 2 3 4 5 6 7 8 9 10 11 12 13 14 15 16
000
FTUS43 KARX 282033 AAA
TAFRST
TAF AMD
KRST 282033Z 2821/2918 29019G27KT P6SM SCT060
     FM290100 28010KT P6SM SCT070
     FM291300 28010KT P6SM BKN035
     FM291600 28013G23KT P6SM BKN035=

USA.gov is the U.S. government's official web portal to all federal, state and local government web resources and services.